sensor_id;sensor_type;location;lat;lon;timestamp;P1;durP1;ratioP1;P2;durP2;ratioP2
9914;SDS011;4996;48.746;9.174;2023-06-24T00:02:11;5.43;;;4.00;;
9914;SDS011;4996;48.746;9.174;2023-06-24T00:04:36;6.00;;;3.73;;
9914;SDS011;4996;48.746;9.174;2023-06-24T00:07:02;5.33;;;3.77;;
9914;SDS011;4996;48.746;9.174;2023-06-24T00:09:28;4.53;;;3.70;;
9914;SDS011;4996;48.746;9.174;2023-06-24T00:11:55;5.20;;;3.93;;
9914;SDS011;4996;48.746;9.174;2023-06-24T00:14:21;7.93;;;3.70;;
9914;SDS011;4996;48.746;9.174;2023-06-24T00:16:49;5.30;;;3.97;;
9914;SDS011;4996;48.746;9.174;2023-06-24T00:19:18;5.83;;;4.00;;
9914;SDS011;4996;48.746;9.174;2023-06-24T00:21:50;4.40;;;3.60;;
9914;SDS011;4996;48.746;9.174;2023-06-24T00:24:20;5.20;;;3.73;;
9914;SDS011;4996;48.746;9.174;2023-06-24T00:26:50;6.37;;;3.70;;
9914;SDS011;4996;48.746;9.174;2023-06-24T00:29:17;4.40;;;3.47;;
9914;SDS011;4996;48.746;9.174;2023-06-24T00:31:42;4.33;;;3.40;;
9914;SDS011;4996;48.746;9.174;2023-06-24T00:34:08;5.00;;;3.60;;
9914;SDS011;4996;48.746;9.174;2023-06-24T00:36:33;4.73;;;3.73;;
9914;SDS011;4996;48.746;9.174;2023-06-24T00:39:02;6.17;;;3.87;;
9914;SDS011;4996;48.746;9.174;2023-06-24T00:41:29;5.40;;;3.60;;
9914;SDS011;4996;48.746;9.174;2023-06-24T00:43:55;4.03;;;3.63;;
9914;SDS011;4996;48.746;9.174;2023-06-24T00:46:22;7.23;;;3.40;;
9914;SDS011;4996;48.746;9.174;2023-06-24T00:48:50;4.37;;;3.73;;
9914;SDS011;4996;48.746;9.174;2023-06-24T00:51:22;4.80;;;4.17;;
9914;SDS011;4996;48.746;9.174;2023-06-24T00:53:58;4.27;;;3.07;;
9914;SDS011;4996;48.746;9.174;2023-06-24T00:56:42;9.00;;;4.03;;
9914;SDS011;4996;48.746;9.174;2023-06-24T00:59:08;5.60;;;4.10;;
9914;SDS011;4996;48.746;9.174;2023-06-24T01:01:37;5.30;;;4.30;;
9914;SDS011;4996;48.746;9.174;2023-06-24T01:04:04;6.53;;;4.50;;
9914;SDS011;4996;48.746;9.174;2023-06-24T01:06:31;7.20;;;3.80;;
9914;SDS011;4996;48.746;9.174;2023-06-24T01:08:59;7.03;;;4.03;;
9914;SDS011;4996;48.746;9.174;2023-06-24T01:11:27;6.20;;;3.60;;
9914;SDS011;4996;48.746;9.174;2023-06-24T01:13:53;7.33;;;4.00;;
9914;SDS011;4996;48.746;9.174;2023-06-24T01:19:44;4.70;;;4.20;;
9914;SDS011;4996;48.746;9.174;2023-06-24T01:22:37;5.33;;;3.77;;
9914;SDS011;4996;48.746;9.174;2023-06-24T01:25:44;7.03;;;4.13;;
9914;SDS011;4996;48.746;9.174;2023-06-24T01:28:41;6.47;;;4.60;;
9914;SDS011;4996;48.746;9.174;2023-06-24T01:31:34;7.20;;;4.70;;
9914;SDS011;4996;48.746;9.174;2023-06-24T01:34:03;5.27;;;4.17;;
9914;SDS011;4996;48.746;9.174;2023-06-24T01:39:42;8.37;;;4.80;;
9914;SDS011;4996;48.746;9.174;2023-06-24T01:42:13;8.60;;;4.73;;
9914;SDS011;4996;48.746;9.174;2023-06-24T01:44:41;6.07;;;4.60;;
9914;SDS011;4996;48.746;9.174;2023-06-24T01:47:08;7.60;;;4.83;;
9914;SDS011;4996;48.746;9.174;2023-06-24T01:49:37;5.87;;;4.67;;
9914;SDS011;4996;48.746;9.174;2023-06-24T01:52:05;10.90;;;5.00;;
9914;SDS011;4996;48.746;9.174;2023-06-24T01:54:33;5.70;;;4.50;;
9914;SDS011;4996;48.746;9.174;2023-06-24T01:57:01;8.20;;;4.77;;
9914;SDS011;4996;48.746;9.174;2023-06-24T01:59:30;7.33;;;5.50;;
9914;SDS011;4996;48.746;9.174;2023-06-24T02:01:57;5.83;;;4.47;;
9914;SDS011;4996;48.746;9.174;2023-06-24T02:04:25;6.80;;;4.57;;
9914;SDS011;4996;48.746;9.174;2023-06-24T02:06:55;5.33;;;4.57;;
9914;SDS011;4996;48.746;9.174;2023-06-24T02:09:24;6.17;;;4.70;;
9914;SDS011;4996;48.746;9.174;2023-06-24T02:11:51;7.27;;;5.30;;
9914;SDS011;4996;48.746;9.174;2023-06-24T02:14:18;6.87;;;4.53;;
9914;SDS011;4996;48.746;9.174;2023-06-24T02:16:45;7.63;;;5.27;;
9914;SDS011;4996;48.746;9.174;2023-06-24T02:19:12;6.40;;;4.87;;
9914;SDS011;4996;48.746;9.174;2023-06-24T02:21:42;6.27;;;5.00;;
9914;SDS011;4996;48.746;9.174;2023-06-24T02:24:09;6.10;;;5.30;;
9914;SDS011;4996;48.746;9.174;2023-06-24T02:26:36;6.90;;;5.70;;
9914;SDS011;4996;48.746;9.174;2023-06-24T02:29:05;6.27;;;5.40;;
9914;SDS011;4996;48.746;9.174;2023-06-24T02:31:35;7.67;;;5.53;;
9914;SDS011;4996;48.746;9.174;2023-06-24T02:34:01;5.47;;;4.20;;
9914;SDS011;4996;48.746;9.174;2023-06-24T02:36:26;6.60;;;5.60;;
9914;SDS011;4996;48.746;9.174;2023-06-24T02:38:52;7.37;;;5.23;;
9914;SDS011;4996;48.746;9.174;2023-06-24T02:41:17;6.27;;;5.10;;
9914;SDS011;4996;48.746;9.174;2023-06-24T02:43:43;6.83;;;4.93;;
9914;SDS011;4996;48.746;9.174;2023-06-24T02:46:08;5.47;;;4.50;;
9914;SDS011;4996;48.746;9.174;2023-06-24T02:48:35;7.40;;;5.20;;
9914;SDS011;4996;48.746;9.174;2023-06-24T02:51:02;6.13;;;4.57;;
9914;SDS011;4996;48.746;9.174;2023-06-24T02:53:29;7.00;;;5.70;;
9914;SDS011;4996;48.746;9.174;2023-06-24T02:55:55;6.20;;;5.30;;
9914;SDS011;4996;48.746;9.174;2023-06-24T02:58:21;6.27;;;4.87;;
9914;SDS011;4996;48.746;9.174;2023-06-24T03:00:49;7.43;;;5.23;;
9914;SDS011;4996;48.746;9.174;2023-06-24T03:03:14;6.63;;;5.27;;
9914;SDS011;4996;48.746;9.174;2023-06-24T03:05:41;6.00;;;4.93;;
9914;SDS011;4996;48.746;9.174;2023-06-24T03:08:09;6.77;;;5.30;;
9914;SDS011;4996;48.746;9.174;2023-06-24T03:10:36;7.90;;;5.43;;
9914;SDS011;4996;48.746;9.174;2023-06-24T03:13:02;8.90;;;5.40;;
9914;SDS011;4996;48.746;9.174;2023-06-24T03:15:28;7.23;;;5.50;;
9914;SDS011;4996;48.746;9.174;2023-06-24T03:17:53;7.70;;;5.50;;
9914;SDS011;4996;48.746;9.174;2023-06-24T03:20:19;5.60;;;4.90;;
9914;SDS011;4996;48.746;9.174;2023-06-24T03:22:45;6.50;;;5.10;;
9914;SDS011;4996;48.746;9.174;2023-06-24T03:25:11;6.87;;;4.70;;
9914;SDS011;4996;48.746;9.174;2023-06-24T03:27:36;6.63;;;5.10;;
9914;SDS011;4996;48.746;9.174;2023-06-24T03:30:03;6.40;;;5.00;;
9914;SDS011;4996;48.746;9.174;2023-06-24T03:32:29;13.90;;;6.43;;
9914;SDS011;4996;48.746;9.174;2023-06-24T03:34:54;6.80;;;4.83;;
9914;SDS011;4996;48.746;9.174;2023-06-24T03:37:20;7.73;;;5.60;;
9914;SDS011;4996;48.746;9.174;2023-06-24T03:39:45;5.73;;;5.00;;
9914;SDS011;4996;48.746;9.174;2023-06-24T03:42:11;8.03;;;5.70;;
9914;SDS011;4996;48.746;9.174;2023-06-24T03:44:36;7.87;;;5.50;;
9914;SDS011;4996;48.746;9.174;2023-06-24T03:47:02;5.90;;;4.83;;
9914;SDS011;4996;48.746;9.174;2023-06-24T03:49:28;6.53;;;4.63;;
9914;SDS011;4996;48.746;9.174;2023-06-24T03:51:53;10.60;;;5.77;;
9914;SDS011;4996;48.746;9.174;2023-06-24T03:54:19;8.10;;;6.17;;
9914;SDS011;4996;48.746;9.174;2023-06-24T03:56:44;9.73;;;5.23;;
9914;SDS011;4996;48.746;9.174;2023-06-24T03:59:10;8.40;;;5.73;;
9914;SDS011;4996;48.746;9.174;2023-06-24T04:01:35;6.97;;;4.53;;
9914;SDS011;4996;48.746;9.174;2023-06-24T04:04:01;8.60;;;5.03;;
9914;SDS011;4996;48.746;9.174;2023-06-24T04:06:27;7.73;;;6.17;;
9914;SDS011;4996;48.746;9.174;2023-06-24T04:08:52;7.17;;;5.53;;
9914;SDS011;4996;48.746;9.174;2023-06-24T04:11:18;8.93;;;6.10;;
9914;SDS011;4996;48.746;9.174;2023-06-24T04:13:44;6.17;;;4.13;;
9914;SDS011;4996;48.746;9.174;2023-06-24T04:16:10;4.83;;;4.13;;
9914;SDS011;4996;48.746;9.174;2023-06-24T04:18:36;8.83;;;5.23;;
9914;SDS011;4996;48.746;9.174;2023-06-24T04:21:04;7.63;;;5.70;;
9914;SDS011;4996;48.746;9.174;2023-06-24T04:23:31;6.53;;;5.30;;
9914;SDS011;4996;48.746;9.174;2023-06-24T04:25:57;4.90;;;4.40;;
9914;SDS011;4996;48.746;9.174;2023-06-24T04:28:23;6.63;;;4.73;;
9914;SDS011;4996;48.746;9.174;2023-06-24T04:30:49;6.60;;;4.77;;
9914;SDS011;4996;48.746;9.174;2023-06-24T04:33:14;13.23;;;4.77;;
9914;SDS011;4996;48.746;9.174;2023-06-24T04:35:40;8.07;;;5.83;;
9914;SDS011;4996;48.746;9.174;2023-06-24T04:38:05;8.07;;;5.10;;
9914;SDS011;4996;48.746;9.174;2023-06-24T04:40:31;6.30;;;5.00;;
9914;SDS011;4996;48.746;9.174;2023-06-24T04:42:56;7.83;;;5.40;;
9914;SDS011;4996;48.746;9.174;2023-06-24T04:45:22;5.30;;;4.80;;
9914;SDS011;4996;48.746;9.174;2023-06-24T04:47:47;4.93;;;4.43;;
9914;SDS011;4996;48.746;9.174;2023-06-24T04:50:13;9.53;;;5.90;;
9914;SDS011;4996;48.746;9.174;2023-06-24T04:52:39;6.07;;;4.40;;
9914;SDS011;4996;48.746;9.174;2023-06-24T04:55:04;6.43;;;5.30;;
9914;SDS011;4996;48.746;9.174;2023-06-24T04:57:31;5.47;;;4.77;;
9914;SDS011;4996;48.746;9.174;2023-06-24T04:59:57;5.70;;;4.73;;
9914;SDS011;4996;48.746;9.174;2023-06-24T05:02:23;6.87;;;5.40;;
9914;SDS011;4996;48.746;9.174;2023-06-24T05:04:49;7.10;;;5.23;;
9914;SDS011;4996;48.746;9.174;2023-06-24T05:07:17;5.47;;;4.53;;
9914;SDS011;4996;48.746;9.174;2023-06-24T05:09:42;5.57;;;4.67;;
9914;SDS011;4996;48.746;9.174;2023-06-24T05:12:10;6.00;;;4.67;;
9914;SDS011;4996;48.746;9.174;2023-06-24T05:14:36;6.47;;;5.40;;
9914;SDS011;4996;48.746;9.174;2023-06-24T05:17:02;7.40;;;5.43;;
9914;SDS011;4996;48.746;9.174;2023-06-24T05:19:28;7.40;;;5.57;;
9914;SDS011;4996;48.746;9.174;2023-06-24T05:21:54;5.40;;;4.83;;
9914;SDS011;4996;48.746;9.174;2023-06-24T05:24:20;10.13;;;5.40;;
9914;SDS011;4996;48.746;9.174;2023-06-24T05:26:48;7.40;;;5.20;;
9914;SDS011;4996;48.746;9.174;2023-06-24T05:29:14;5.67;;;5.00;;
9914;SDS011;4996;48.746;9.174;2023-06-24T05:31:40;6.97;;;5.53;;
9914;SDS011;4996;48.746;9.174;2023-06-24T05:34:06;6.60;;;5.30;;
9914;SDS011;4996;48.746;9.174;2023-06-24T05:36:32;7.37;;;5.13;;
9914;SDS011;4996;48.746;9.174;2023-06-24T05:38:57;9.43;;;5.97;;
9914;SDS011;4996;48.746;9.174;2023-06-24T05:41:23;8.93;;;5.87;;
9914;SDS011;4996;48.746;9.174;2023-06-24T05:43:48;6.30;;;4.80;;
9914;SDS011;4996;48.746;9.174;2023-06-24T05:46:14;5.50;;;4.67;;
9914;SDS011;4996;48.746;9.174;2023-06-24T05:48:39;15.40;;;7.13;;
9914;SDS011;4996;48.746;9.174;2023-06-24T05:51:07;8.20;;;5.20;;
9914;SDS011;4996;48.746;9.174;2023-06-24T05:53:33;7.53;;;4.77;;
9914;SDS011;4996;48.746;9.174;2023-06-24T05:55:59;6.63;;;4.33;;
9914;SDS011;4996;48.746;9.174;2023-06-24T05:58:24;6.90;;;5.03;;
9914;SDS011;4996;48.746;9.174;2023-06-24T06:00:50;5.43;;;4.60;;
9914;SDS011;4996;48.746;9.174;2023-06-24T06:03:15;7.27;;;4.90;;
9914;SDS011;4996;48.746;9.174;2023-06-24T06:05:41;6.47;;;4.90;;
9914;SDS011;4996;48.746;9.174;2023-06-24T06:08:07;5.93;;;4.93;;
9914;SDS011;4996;48.746;9.174;2023-06-24T06:10:32;7.23;;;4.70;;
9914;SDS011;4996;48.746;9.174;2023-06-24T06:12:58;10.50;;;4.80;;
9914;SDS011;4996;48.746;9.174;2023-06-24T06:15:23;7.53;;;4.10;;
9914;SDS011;4996;48.746;9.174;2023-06-24T06:17:49;5.03;;;4.30;;
9914;SDS011;4996;48.746;9.174;2023-06-24T06:20:14;5.83;;;4.07;;
9914;SDS011;4996;48.746;9.174;2023-06-24T06:22:40;10.03;;;5.10;;
9914;SDS011;4996;48.746;9.174;2023-06-24T06:25:05;5.20;;;4.17;;
9914;SDS011;4996;48.746;9.174;2023-06-24T06:27:31;5.13;;;4.33;;
9914;SDS011;4996;48.746;9.174;2023-06-24T06:29:57;4.70;;;3.77;;
9914;SDS011;4996;48.746;9.174;2023-06-24T06:32:22;5.60;;;4.93;;
9914;SDS011;4996;48.746;9.174;2023-06-24T06:34:48;4.97;;;4.47;;
9914;SDS011;4996;48.746;9.174;2023-06-24T06:37:13;5.90;;;4.03;;
9914;SDS011;4996;48.746;9.174;2023-06-24T06:39:39;6.47;;;4.43;;
9914;SDS011;4996;48.746;9.174;2023-06-24T06:42:04;4.73;;;3.80;;
9914;SDS011;4996;48.746;9.174;2023-06-24T06:44:30;5.20;;;3.97;;
9914;SDS011;4996;48.746;9.174;2023-06-24T06:46:56;4.33;;;3.50;;
9914;SDS011;4996;48.746;9.174;2023-06-24T06:49:21;6.40;;;3.90;;
9914;SDS011;4996;48.746;9.174;2023-06-24T06:51:47;5.47;;;4.17;;
9914;SDS011;4996;48.746;9.174;2023-06-24T06:54:12;5.53;;;4.27;;
9914;SDS011;4996;48.746;9.174;2023-06-24T06:56:38;5.63;;;4.20;;
9914;SDS011;4996;48.746;9.174;2023-06-24T06:59:04;3.23;;;2.93;;
9914;SDS011;4996;48.746;9.174;2023-06-24T07:01:30;3.87;;;3.13;;
9914;SDS011;4996;48.746;9.174;2023-06-24T07:03:55;4.70;;;3.50;;
9914;SDS011;4996;48.746;9.174;2023-06-24T07:06:21;4.60;;;3.70;;
9914;SDS011;4996;48.746;9.174;2023-06-24T07:08:46;6.30;;;3.47;;
9914;SDS011;4996;48.746;9.174;2023-06-24T07:11:12;4.90;;;3.60;;
9914;SDS011;4996;48.746;9.174;2023-06-24T07:13:37;5.00;;;3.47;;
9914;SDS011;4996;48.746;9.174;2023-06-24T07:16:03;4.87;;;4.33;;
9914;SDS011;4996;48.746;9.174;2023-06-24T07:18:29;4.57;;;3.30;;
9914;SDS011;4996;48.746;9.174;2023-06-24T07:20:55;5.03;;;3.90;;
9914;SDS011;4996;48.746;9.174;2023-06-24T07:23:21;3.67;;;3.30;;
9914;SDS011;4996;48.746;9.174;2023-06-24T07:25:47;3.73;;;2.60;;
9914;SDS011;4996;48.746;9.174;2023-06-24T07:28:12;3.87;;;3.13;;
9914;SDS011;4996;48.746;9.174;2023-06-24T07:30:40;4.23;;;2.60;;
9914;SDS011;4996;48.746;9.174;2023-06-24T07:33:07;3.43;;;3.07;;
9914;SDS011;4996;48.746;9.174;2023-06-24T07:35:33;4.40;;;3.63;;
9914;SDS011;4996;48.746;9.174;2023-06-24T07:37:59;4.27;;;3.87;;
9914;SDS011;4996;48.746;9.174;2023-06-24T07:40:25;4.60;;;3.53;;
9914;SDS011;4996;48.746;9.174;2023-06-24T07:42:50;3.10;;;2.73;;
9914;SDS011;4996;48.746;9.174;2023-06-24T07:45:16;3.80;;;3.00;;
9914;SDS011;4996;48.746;9.174;2023-06-24T07:47:41;3.70;;;3.30;;
9914;SDS011;4996;48.746;9.174;2023-06-24T07:50:07;3.87;;;2.97;;
9914;SDS011;4996;48.746;9.174;2023-06-24T07:52:35;4.00;;;2.73;;
9914;SDS011;4996;48.746;9.174;2023-06-24T07:55:01;3.47;;;3.17;;
9914;SDS011;4996;48.746;9.174;2023-06-24T07:57:28;5.10;;;3.83;;
9914;SDS011;4996;48.746;9.174;2023-06-24T07:59:54;4.57;;;3.50;;
9914;SDS011;4996;48.746;9.174;2023-06-24T08:02:20;4.30;;;3.87;;
9914;SDS011;4996;48.746;9.174;2023-06-24T08:04:45;3.43;;;3.13;;
9914;SDS011;4996;48.746;9.174;2023-06-24T08:07:11;3.67;;;2.80;;
9914;SDS011;4996;48.746;9.174;2023-06-24T08:09:36;4.00;;;3.57;;
9914;SDS011;4996;48.746;9.174;2023-06-24T08:12:02;3.57;;;3.13;;
9914;SDS011;4996;48.746;9.174;2023-06-24T08:14:28;3.60;;;3.30;;
9914;SDS011;4996;48.746;9.174;2023-06-24T08:16:54;3.33;;;2.77;;
9914;SDS011;4996;48.746;9.174;2023-06-24T08:19:19;5.57;;;3.97;;
9914;SDS011;4996;48.746;9.174;2023-06-24T08:21:45;4.03;;;3.33;;
9914;SDS011;4996;48.746;9.174;2023-06-24T08:24:10;4.03;;;3.63;;
9914;SDS011;4996;48.746;9.174;2023-06-24T08:26:36;6.93;;;3.40;;
9914;SDS011;4996;48.746;9.174;2023-06-24T08:29:01;6.40;;;4.10;;
9914;SDS011;4996;48.746;9.174;2023-06-24T08:31:27;4.47;;;3.50;;
9914;SDS011;4996;48.746;9.174;2023-06-24T08:33:52;5.73;;;3.90;;
9914;SDS011;4996;48.746;9.174;2023-06-24T08:36:19;6.53;;;4.03;;
9914;SDS011;4996;48.746;9.174;2023-06-24T08:38:47;4.70;;;3.40;;
9914;SDS011;4996;48.746;9.174;2023-06-24T08:41:13;5.13;;;3.37;;
9914;SDS011;4996;48.746;9.174;2023-06-24T08:43:38;4.13;;;3.70;;
9914;SDS011;4996;48.746;9.174;2023-06-24T08:46:05;4.70;;;3.40;;
9914;SDS011;4996;48.746;9.174;2023-06-24T08:48:30;3.70;;;3.40;;
9914;SDS011;4996;48.746;9.174;2023-06-24T08:50:58;6.20;;;3.90;;
9914;SDS011;4996;48.746;9.174;2023-06-24T08:53:25;3.90;;;3.40;;
9914;SDS011;4996;48.746;9.174;2023-06-24T08:55:52;6.00;;;3.70;;
9914;SDS011;4996;48.746;9.174;2023-06-24T08:58:19;3.60;;;3.13;;
9914;SDS011;4996;48.746;9.174;2023-06-24T09:00:44;5.00;;;4.07;;
9914;SDS011;4996;48.746;9.174;2023-06-24T09:03:11;5.40;;;3.50;;
9914;SDS011;4996;48.746;9.174;2023-06-24T09:05:36;4.50;;;3.00;;
9914;SDS011;4996;48.746;9.174;2023-06-24T09:08:02;5.80;;;3.40;;
9914;SDS011;4996;48.746;9.174;2023-06-24T09:10:31;4.57;;;3.23;;
9914;SDS011;4996;48.746;9.174;2023-06-24T09:12:58;6.93;;;3.67;;
9914;SDS011;4996;48.746;9.174;2023-06-24T09:15:25;5.90;;;3.40;;
9914;SDS011;4996;48.746;9.174;2023-06-24T09:17:55;4.10;;;2.87;;
9914;SDS011;4996;48.746;9.174;2023-06-24T09:20:20;3.13;;;2.50;;
9914;SDS011;4996;48.746;9.174;2023-06-24T09:22:47;3.60;;;3.20;;
9914;SDS011;4996;48.746;9.174;2023-06-24T09:25:17;5.97;;;4.03;;
9914;SDS011;4996;48.746;9.174;2023-06-24T09:27:47;2.83;;;2.60;;
9914;SDS011;4996;48.746;9.174;2023-06-24T09:30:20;3.80;;;3.13;;
9914;SDS011;4996;48.746;9.174;2023-06-24T09:32:49;3.40;;;3.07;;
9914;SDS011;4996;48.746;9.174;2023-06-24T09:35:18;3.67;;;3.23;;
9914;SDS011;4996;48.746;9.174;2023-06-24T09:37:56;3.17;;;2.87;;
9914;SDS011;4996;48.746;9.174;2023-06-24T09:40:24;4.10;;;3.30;;
9914;SDS011;4996;48.746;9.174;2023-06-24T09:42:53;4.87;;;2.80;;
9914;SDS011;4996;48.746;9.174;2023-06-24T09:45:23;3.70;;;2.83;;
9914;SDS011;4996;48.746;9.174;2023-06-24T09:47:54;3.90;;;3.50;;
9914;SDS011;4996;48.746;9.174;2023-06-24T09:50:20;3.63;;;3.23;;
9914;SDS011;4996;48.746;9.174;2023-06-24T09:52:46;3.70;;;2.73;;
9914;SDS011;4996;48.746;9.174;2023-06-24T09:55:14;6.10;;;3.77;;
9914;SDS011;4996;48.746;9.174;2023-06-24T09:57:41;4.07;;;3.00;;
9914;SDS011;4996;48.746;9.174;2023-06-24T10:00:15;4.70;;;3.07;;
9914;SDS011;4996;48.746;9.174;2023-06-24T10:02:44;6.13;;;2.87;;
9914;SDS011;4996;48.746;9.174;2023-06-24T10:05:14;3.17;;;2.77;;
9914;SDS011;4996;48.746;9.174;2023-06-24T10:07:40;2.97;;;2.27;;
9914;SDS011;4996;48.746;9.174;2023-06-24T10:10:07;2.33;;;1.93;;
9914;SDS011;4996;48.746;9.174;2023-06-24T10:12:34;2.80;;;2.60;;
9914;SDS011;4996;48.746;9.174;2023-06-24T10:15:00;3.73;;;2.70;;
9914;SDS011;4996;48.746;9.174;2023-06-24T10:17:27;3.03;;;2.73;;
9914;SDS011;4996;48.746;9.174;2023-06-24T10:19:53;2.60;;;2.40;;
9914;SDS011;4996;48.746;9.174;2023-06-24T10:22:21;2.90;;;2.50;;
9914;SDS011;4996;48.746;9.174;2023-06-24T10:24:49;3.03;;;2.77;;
9914;SDS011;4996;48.746;9.174;2023-06-24T10:27:17;5.57;;;3.73;;
9914;SDS011;4996;48.746;9.174;2023-06-24T10:29:47;8.20;;;7.37;;
9914;SDS011;4996;48.746;9.174;2023-06-24T10:32:14;5.20;;;3.10;;
9914;SDS011;4996;48.746;9.174;2023-06-24T10:34:41;4.03;;;3.53;;
9914;SDS011;4996;48.746;9.174;2023-06-24T10:37:20;5.23;;;2.93;;
9914;SDS011;4996;48.746;9.174;2023-06-24T10:39:52;3.60;;;2.77;;
9914;SDS011;4996;48.746;9.174;2023-06-24T10:47:41;3.60;;;2.97;;
9914;SDS011;4996;48.746;9.174;2023-06-24T10:50:09;2.40;;;2.20;;
9914;SDS011;4996;48.746;9.174;2023-06-24T10:52:37;3.43;;;2.90;;
9914;SDS011;4996;48.746;9.174;2023-06-24T10:55:05;2.97;;;2.70;;
9914;SDS011;4996;48.746;9.174;2023-06-24T10:57:32;4.47;;;3.33;;
9914;SDS011;4996;48.746;9.174;2023-06-24T10:59:58;5.10;;;3.20;;
9914;SDS011;4996;48.746;9.174;2023-06-24T11:02:26;4.13;;;2.90;;
9914;SDS011;4996;48.746;9.174;2023-06-24T11:04:53;3.00;;;2.70;;
9914;SDS011;4996;48.746;9.174;2023-06-24T11:07:26;5.30;;;3.10;;
9914;SDS011;4996;48.746;9.174;2023-06-24T11:09:56;4.33;;;3.27;;
9914;SDS011;4996;48.746;9.174;2023-06-24T11:12:24;3.70;;;2.77;;
9914;SDS011;4996;48.746;9.174;2023-06-24T11:14:52;3.27;;;2.63;;
9914;SDS011;4996;48.746;9.174;2023-06-24T11:17:21;4.13;;;2.90;;
9914;SDS011;4996;48.746;9.174;2023-06-24T11:19:47;3.17;;;2.87;;
9914;SDS011;4996;48.746;9.174;2023-06-24T11:22:13;4.03;;;3.37;;
9914;SDS011;4996;48.746;9.174;2023-06-24T11:24:38;3.50;;;3.00;;
9914;SDS011;4996;48.746;9.174;2023-06-24T11:27:05;2.90;;;2.60;;
9914;SDS011;4996;48.746;9.174;2023-06-24T11:29:31;5.00;;;2.83;;
9914;SDS011;4996;48.746;9.174;2023-06-24T11:31:58;3.70;;;3.40;;
9914;SDS011;4996;48.746;9.174;2023-06-24T11:34:23;3.67;;;3.10;;
9914;SDS011;4996;48.746;9.174;2023-06-24T11:36:49;3.60;;;2.77;;
9914;SDS011;4996;48.746;9.174;2023-06-24T11:39:25;4.37;;;3.50;;
9914;SDS011;4996;48.746;9.174;2023-06-24T11:41:52;5.07;;;2.83;;
9914;SDS011;4996;48.746;9.174;2023-06-24T11:44:21;4.30;;;3.30;;
9914;SDS011;4996;48.746;9.174;2023-06-24T11:46:49;3.10;;;2.67;;
9914;SDS011;4996;48.746;9.174;2023-06-24T11:49:14;3.63;;;3.33;;
9914;SDS011;4996;48.746;9.174;2023-06-24T11:51:47;4.67;;;2.80;;
9914;SDS011;4996;48.746;9.174;2023-06-24T11:54:14;3.20;;;2.87;;
9914;SDS011;4996;48.746;9.174;2023-06-24T11:56:42;4.50;;;2.87;;
9914;SDS011;4996;48.746;9.174;2023-06-24T11:59:23;3.47;;;2.40;;
9914;SDS011;4996;48.746;9.174;2023-06-24T12:01:55;2.93;;;2.63;;
9914;SDS011;4996;48.746;9.174;2023-06-24T12:04:32;5.17;;;2.30;;
9914;SDS011;4996;48.746;9.174;2023-06-24T12:06:58;3.10;;;2.80;;
9914;SDS011;4996;48.746;9.174;2023-06-24T12:09:24;2.90;;;2.70;;
9914;SDS011;4996;48.746;9.174;2023-06-24T12:11:50;4.13;;;2.60;;
9914;SDS011;4996;48.746;9.174;2023-06-24T12:14:16;3.00;;;2.70;;
9914;SDS011;4996;48.746;9.174;2023-06-24T12:16:42;3.00;;;2.80;;
9914;SDS011;4996;48.746;9.174;2023-06-24T12:19:07;3.20;;;2.90;;
9914;SDS011;4996;48.746;9.174;2023-06-24T12:21:33;2.80;;;2.60;;
9914;SDS011;4996;48.746;9.174;2023-06-24T12:23:59;3.43;;;2.73;;
9914;SDS011;4996;48.746;9.174;2023-06-24T12:26:25;2.53;;;2.33;;
9914;SDS011;4996;48.746;9.174;2023-06-24T12:28:53;3.40;;;3.10;;
9914;SDS011;4996;48.746;9.174;2023-06-24T12:31:20;3.13;;;2.83;;
9914;SDS011;4996;48.746;9.174;2023-06-24T12:33:46;4.50;;;4.10;;
9914;SDS011;4996;48.746;9.174;2023-06-24T12:36:11;3.57;;;3.27;;
9914;SDS011;4996;48.746;9.174;2023-06-24T12:38:37;3.27;;;3.00;;
9914;SDS011;4996;48.746;9.174;2023-06-24T12:41:03;2.70;;;2.50;;
9914;SDS011;4996;48.746;9.174;2023-06-24T12:43:29;3.00;;;2.70;;
9914;SDS011;4996;48.746;9.174;2023-06-24T12:45:54;3.30;;;3.00;;
9914;SDS011;4996;48.746;9.174;2023-06-24T12:48:20;3.20;;;2.90;;
9914;SDS011;4996;48.746;9.174;2023-06-24T12:50:46;3.63;;;3.33;;
9914;SDS011;4996;48.746;9.174;2023-06-24T12:53:12;3.10;;;2.80;;
9914;SDS011;4996;48.746;9.174;2023-06-24T12:55:40;2.57;;;2.37;;
9914;SDS011;4996;48.746;9.174;2023-06-24T12:58:06;3.10;;;2.90;;
9914;SDS011;4996;48.746;9.174;2023-06-24T13:00:32;3.03;;;2.70;;
9914;SDS011;4996;48.746;9.174;2023-06-24T13:02:57;3.53;;;2.97;;
9914;SDS011;4996;48.746;9.174;2023-06-24T13:05:23;4.00;;;2.70;;
9914;SDS011;4996;48.746;9.174;2023-06-24T13:07:49;3.07;;;2.87;;
9914;SDS011;4996;48.746;9.174;2023-06-24T13:10:15;3.53;;;3.23;;
9914;SDS011;4996;48.746;9.174;2023-06-24T13:12:41;3.60;;;3.20;;
9914;SDS011;4996;48.746;9.174;2023-06-24T13:15:06;3.17;;;2.93;;
9914;SDS011;4996;48.746;9.174;2023-06-24T13:17:34;4.00;;;2.87;;
9914;SDS011;4996;48.746;9.174;2023-06-24T13:20:00;3.20;;;2.90;;
9914;SDS011;4996;48.746;9.174;2023-06-24T13:22:28;3.20;;;2.90;;
9914;SDS011;4996;48.746;9.174;2023-06-24T13:24:53;3.13;;;2.90;;
9914;SDS011;4996;48.746;9.174;2023-06-24T13:27:19;2.63;;;2.23;;
9914;SDS011;4996;48.746;9.174;2023-06-24T13:29:44;5.67;;;2.60;;
9914;SDS011;4996;48.746;9.174;2023-06-24T13:32:10;3.40;;;2.93;;
9914;SDS011;4996;48.746;9.174;2023-06-24T13:34:35;2.50;;;2.30;;
9914;SDS011;4996;48.746;9.174;2023-06-24T13:37:01;3.30;;;2.80;;
9914;SDS011;4996;48.746;9.174;2023-06-24T13:39:26;2.20;;;2.00;;
9914;SDS011;4996;48.746;9.174;2023-06-24T13:41:52;3.20;;;2.70;;
9914;SDS011;4996;48.746;9.174;2023-06-24T13:44:18;3.37;;;3.07;;
9914;SDS011;4996;48.746;9.174;2023-06-24T13:46:43;4.17;;;3.13;;
9914;SDS011;4996;48.746;9.174;2023-06-24T13:49:09;2.80;;;2.50;;
9914;SDS011;4996;48.746;9.174;2023-06-24T13:51:35;3.33;;;2.90;;
9914;SDS011;4996;48.746;9.174;2023-06-24T13:54:01;3.97;;;3.43;;
9914;SDS011;4996;48.746;9.174;2023-06-24T13:56:27;3.03;;;2.73;;
9914;SDS011;4996;48.746;9.174;2023-06-24T13:58:53;2.37;;;2.17;;
9914;SDS011;4996;48.746;9.174;2023-06-24T14:01:19;4.60;;;3.33;;
9914;SDS011;4996;48.746;9.174;2023-06-24T14:03:46;3.27;;;2.93;;
9914;SDS011;4996;48.746;9.174;2023-06-24T14:06:13;3.13;;;2.83;;
9914;SDS011;4996;48.746;9.174;2023-06-24T14:08:40;6.03;;;3.23;;
9914;SDS011;4996;48.746;9.174;2023-06-24T14:11:06;4.07;;;2.60;;
9914;SDS011;4996;48.746;9.174;2023-06-24T14:13:31;4.40;;;2.83;;
9914;SDS011;4996;48.746;9.174;2023-06-24T14:15:57;3.30;;;3.00;;
9914;SDS011;4996;48.746;9.174;2023-06-24T14:18:23;3.50;;;2.97;;
9914;SDS011;4996;48.746;9.174;2023-06-24T14:20:48;4.00;;;2.97;;
9914;SDS011;4996;48.746;9.174;2023-06-24T14:23:14;4.10;;;3.50;;
9914;SDS011;4996;48.746;9.174;2023-06-24T14:25:40;3.33;;;3.03;;
9914;SDS011;4996;48.746;9.174;2023-06-24T14:28:05;4.60;;;2.53;;
9914;SDS011;4996;48.746;9.174;2023-06-24T14:30:31;5.30;;;3.20;;
9914;SDS011;4996;48.746;9.174;2023-06-24T14:32:58;3.47;;;3.17;;
9914;SDS011;4996;48.746;9.174;2023-06-24T14:35:23;3.43;;;3.13;;
9914;SDS011;4996;48.746;9.174;2023-06-24T14:37:49;3.30;;;2.93;;
9914;SDS011;4996;48.746;9.174;2023-06-24T14:40:15;3.27;;;3.00;;
9914;SDS011;4996;48.746;9.174;2023-06-24T14:42:41;3.60;;;3.20;;
9914;SDS011;4996;48.746;9.174;2023-06-24T14:45:06;2.60;;;2.40;;
9914;SDS011;4996;48.746;9.174;2023-06-24T14:47:32;8.10;;;3.03;;
9914;SDS011;4996;48.746;9.174;2023-06-24T14:49:58;3.20;;;2.90;;
9914;SDS011;4996;48.746;9.174;2023-06-24T14:52:23;2.80;;;2.60;;
9914;SDS011;4996;48.746;9.174;2023-06-24T14:54:49;3.27;;;2.97;;
9914;SDS011;4996;48.746;9.174;2023-06-24T14:57:14;3.13;;;2.77;;
9914;SDS011;4996;48.746;9.174;2023-06-24T14:59:42;3.30;;;3.00;;
9914;SDS011;4996;48.746;9.174;2023-06-24T15:02:08;3.37;;;3.07;;
9914;SDS011;4996;48.746;9.174;2023-06-24T15:04:37;3.07;;;2.77;;
9914;SDS011;4996;48.746;9.174;2023-06-24T15:07:03;3.70;;;3.33;;
9914;SDS011;4996;48.746;9.174;2023-06-24T15:09:29;5.43;;;3.63;;
9914;SDS011;4996;48.746;9.174;2023-06-24T15:11:54;11.60;;;9.13;;
9914;SDS011;4996;48.746;9.174;2023-06-24T15:14:20;3.87;;;3.33;;
9914;SDS011;4996;48.746;9.174;2023-06-24T15:16:45;3.60;;;3.30;;
9914;SDS011;4996;48.746;9.174;2023-06-24T15:19:11;5.00;;;2.70;;
9914;SDS011;4996;48.746;9.174;2023-06-24T15:21:36;3.67;;;3.07;;
9914;SDS011;4996;48.746;9.174;2023-06-24T15:24:02;4.27;;;3.37;;
9914;SDS011;4996;48.746;9.174;2023-06-24T15:26:28;3.40;;;3.10;;